sensor_id;sensor_type;location;lat;lon;timestamp;P1;durP1;ratioP1;P2;durP2;ratioP2
23001;SDS011;11667;51.706;4.856;2022-11-20T00:02:05;35.65;;;18.70;;
23001;SDS011;11667;51.706;4.856;2022-11-20T00:04:34;35.88;;;18.80;;
23001;SDS011;11667;51.706;4.856;2022-11-20T00:07:03;37.63;;;19.15;;
23001;SDS011;11667;51.706;4.856;2022-11-20T00:09:33;36.55;;;18.45;;
23001;SDS011;11667;51.706;4.856;2022-11-20T00:12:02;36.08;;;19.00;;
23001;SDS011;11667;51.706;4.856;2022-11-20T00:14:32;38.50;;;18.52;;
23001;SDS011;11667;51.706;4.856;2022-11-20T00:17:01;38.50;;;19.02;;
23001;SDS011;11667;51.706;4.856;2022-11-20T00:19:30;38.88;;;19.52;;
23001;SDS011;11667;51.706;4.856;2022-11-20T00:22:00;36.60;;;19.57;;
23001;SDS011;11667;51.706;4.856;2022-11-20T00:24:29;36.35;;;18.98;;
23001;SDS011;11667;51.706;4.856;2022-11-20T00:26:58;39.23;;;20.00;;
23001;SDS011;11667;51.706;4.856;2022-11-20T00:29:28;39.88;;;19.77;;
23001;SDS011;11667;51.706;4.856;2022-11-20T00:31:57;43.75;;;21.33;;
23001;SDS011;11667;51.706;4.856;2022-11-20T00:34:26;42.27;;;20.50;;
23001;SDS011;11667;51.706;4.856;2022-11-20T00:36:56;41.73;;;21.48;;
23001;SDS011;11667;51.706;4.856;2022-11-20T00:39:25;44.90;;;21.02;;
23001;SDS011;11667;51.706;4.856;2022-11-20T00:41:54;42.70;;;21.50;;
23001;SDS011;11667;51.706;4.856;2022-11-20T00:44:24;40.45;;;20.55;;
23001;SDS011;11667;51.706;4.856;2022-11-20T00:46:53;40.33;;;20.27;;
23001;SDS011;11667;51.706;4.856;2022-11-20T00:49:22;49.10;;;22.05;;
23001;SDS011;11667;51.706;4.856;2022-11-20T00:51:51;40.67;;;21.02;;
23001;SDS011;11667;51.706;4.856;2022-11-20T00:54:21;40.23;;;20.70;;
23001;SDS011;11667;51.706;4.856;2022-11-20T00:56:52;42.40;;;21.05;;
23001;SDS011;11667;51.706;4.856;2022-11-20T00:59:21;39.58;;;20.05;;
23001;SDS011;11667;51.706;4.856;2022-11-20T01:01:51;43.95;;;21.42;;
23001;SDS011;11667;51.706;4.856;2022-11-20T01:04:20;46.40;;;21.90;;
23001;SDS011;11667;51.706;4.856;2022-11-20T01:06:49;45.05;;;23.10;;
23001;SDS011;11667;51.706;4.856;2022-11-20T01:09:18;45.98;;;22.55;;
23001;SDS011;11667;51.706;4.856;2022-11-20T01:11:48;45.48;;;22.62;;
23001;SDS011;11667;51.706;4.856;2022-11-20T01:14:19;44.50;;;22.20;;
23001;SDS011;11667;51.706;4.856;2022-11-20T01:16:49;43.10;;;22.17;;
23001;SDS011;11667;51.706;4.856;2022-11-20T01:19:20;45.90;;;22.95;;
23001;SDS011;11667;51.706;4.856;2022-11-20T01:21:52;47.23;;;22.55;;
23001;SDS011;11667;51.706;4.856;2022-11-20T01:24:22;44.38;;;22.15;;
23001;SDS011;11667;51.706;4.856;2022-11-20T01:26:51;44.83;;;22.93;;
23001;SDS011;11667;51.706;4.856;2022-11-20T01:29:24;45.78;;;21.82;;
23001;SDS011;11667;51.706;4.856;2022-11-20T01:31:53;44.03;;;20.97;;
23001;SDS011;11667;51.706;4.856;2022-11-20T01:34:23;46.77;;;22.42;;
23001;SDS011;11667;51.706;4.856;2022-11-20T01:36:53;45.90;;;22.32;;
23001;SDS011;11667;51.706;4.856;2022-11-20T01:39:24;44.18;;;22.30;;
23001;SDS011;11667;51.706;4.856;2022-11-20T01:41:54;44.23;;;21.12;;
23001;SDS011;11667;51.706;4.856;2022-11-20T01:47:42;47.03;;;22.52;;
23001;SDS011;11667;51.706;4.856;2022-11-20T01:49:56;43.33;;;22.15;;
23001;SDS011;11667;51.706;4.856;2022-11-20T01:52:31;44.00;;;22.00;;
23001;SDS011;11667;51.706;4.856;2022-11-20T01:55:12;45.43;;;22.32;;
23001;SDS011;11667;51.706;4.856;2022-11-20T01:57:43;43.55;;;21.37;;
23001;SDS011;11667;51.706;4.856;2022-11-20T02:00:14;44.40;;;21.55;;
23001;SDS011;11667;51.706;4.856;2022-11-20T02:02:49;45.53;;;22.63;;
23001;SDS011;11667;51.706;4.856;2022-11-20T02:05:34;44.70;;;22.07;;
23001;SDS011;11667;51.706;4.856;2022-11-20T02:08:05;44.42;;;21.93;;
23001;SDS011;11667;51.706;4.856;2022-11-20T02:10:35;45.17;;;22.05;;
23001;SDS011;11667;51.706;4.856;2022-11-20T02:13:05;45.08;;;22.15;;
23001;SDS011;11667;51.706;4.856;2022-11-20T02:15:52;45.05;;;22.85;;
23001;SDS011;11667;51.706;4.856;2022-11-20T02:18:22;48.65;;;22.73;;
23001;SDS011;11667;51.706;4.856;2022-11-20T02:20:57;42.38;;;21.65;;
23001;SDS011;11667;51.706;4.856;2022-11-20T02:23:27;45.25;;;22.27;;
23001;SDS011;11667;51.706;4.856;2022-11-20T02:25:57;48.95;;;23.45;;
23001;SDS011;11667;51.706;4.856;2022-11-20T02:28:27;42.70;;;22.48;;
23001;SDS011;11667;51.706;4.856;2022-11-20T02:30:57;47.15;;;22.80;;
23001;SDS011;11667;51.706;4.856;2022-11-20T02:33:26;46.00;;;22.55;;
23001;SDS011;11667;51.706;4.856;2022-11-20T02:35:55;46.53;;;22.93;;
23001;SDS011;11667;51.706;4.856;2022-11-20T02:38:24;45.92;;;21.82;;
23001;SDS011;11667;51.706;4.856;2022-11-20T02:40:54;44.45;;;22.25;;
23001;SDS011;11667;51.706;4.856;2022-11-20T02:43:23;43.85;;;21.93;;
23001;SDS011;11667;51.706;4.856;2022-11-20T02:45:53;46.95;;;22.45;;
23001;SDS011;11667;51.706;4.856;2022-11-20T02:48:22;44.98;;;22.95;;
23001;SDS011;11667;51.706;4.856;2022-11-20T02:50:52;45.10;;;22.95;;
23001;SDS011;11667;51.706;4.856;2022-11-20T02:53:21;47.13;;;22.85;;
23001;SDS011;11667;51.706;4.856;2022-11-20T02:55:50;44.48;;;22.22;;
23001;SDS011;11667;51.706;4.856;2022-11-20T02:58:20;42.70;;;22.30;;
23001;SDS011;11667;51.706;4.856;2022-11-20T03:00:50;43.70;;;23.42;;
23001;SDS011;11667;51.706;4.856;2022-11-20T03:03:20;46.63;;;22.32;;
23001;SDS011;11667;51.706;4.856;2022-11-20T03:05:49;42.65;;;21.45;;
23001;SDS011;11667;51.706;4.856;2022-11-20T03:08:18;44.50;;;22.27;;
23001;SDS011;11667;51.706;4.856;2022-11-20T03:10:48;44.10;;;21.17;;
23001;SDS011;11667;51.706;4.856;2022-11-20T03:13:17;41.73;;;21.45;;
23001;SDS011;11667;51.706;4.856;2022-11-20T03:15:47;47.13;;;21.97;;
23001;SDS011;11667;51.706;4.856;2022-11-20T03:18:16;44.85;;;22.13;;
23001;SDS011;11667;51.706;4.856;2022-11-20T03:20:45;42.85;;;22.25;;
23001;SDS011;11667;51.706;4.856;2022-11-20T03:23:15;42.85;;;21.15;;
23001;SDS011;11667;51.706;4.856;2022-11-20T03:25:44;45.83;;;23.07;;
23001;SDS011;11667;51.706;4.856;2022-11-20T03:28:13;47.17;;;22.27;;
23001;SDS011;11667;51.706;4.856;2022-11-20T03:30:43;45.45;;;23.10;;
23001;SDS011;11667;51.706;4.856;2022-11-20T03:33:12;45.48;;;22.62;;
23001;SDS011;11667;51.706;4.856;2022-11-20T03:35:41;44.77;;;22.82;;
23001;SDS011;11667;51.706;4.856;2022-11-20T03:38:11;45.35;;;22.55;;
23001;SDS011;11667;51.706;4.856;2022-11-20T03:40:40;47.40;;;22.25;;
23001;SDS011;11667;51.706;4.856;2022-11-20T03:43:09;46.45;;;22.82;;
23001;SDS011;11667;51.706;4.856;2022-11-20T03:45:39;43.00;;;21.65;;
23001;SDS011;11667;51.706;4.856;2022-11-20T03:48:08;46.63;;;23.38;;
23001;SDS011;11667;51.706;4.856;2022-11-20T03:50:37;44.18;;;22.02;;
23001;SDS011;11667;51.706;4.856;2022-11-20T03:53:07;48.10;;;23.00;;
23001;SDS011;11667;51.706;4.856;2022-11-20T03:55:36;46.18;;;23.07;;
23001;SDS011;11667;51.706;4.856;2022-11-20T03:58:05;46.18;;;23.57;;
23001;SDS011;11667;51.706;4.856;2022-11-20T04:00:34;46.13;;;22.45;;
23001;SDS011;11667;51.706;4.856;2022-11-20T04:03:04;46.75;;;22.58;;
23001;SDS011;11667;51.706;4.856;2022-11-20T04:05:33;46.42;;;22.58;;
23001;SDS011;11667;51.706;4.856;2022-11-20T04:08:03;47.33;;;23.40;;
23001;SDS011;11667;51.706;4.856;2022-11-20T04:10:33;47.30;;;23.00;;
23001;SDS011;11667;51.706;4.856;2022-11-20T04:13:02;48.75;;;23.60;;
23001;SDS011;11667;51.706;4.856;2022-11-20T04:15:32;45.65;;;22.35;;
23001;SDS011;11667;51.706;4.856;2022-11-20T04:18:03;47.65;;;23.22;;
23001;SDS011;11667;51.706;4.856;2022-11-20T04:20:32;47.35;;;23.87;;
23001;SDS011;11667;51.706;4.856;2022-11-20T04:23:02;49.95;;;22.95;;
23001;SDS011;11667;51.706;4.856;2022-11-20T04:25:31;47.43;;;23.92;;
23001;SDS011;11667;51.706;4.856;2022-11-20T04:28:00;52.95;;;25.05;;
23001;SDS011;11667;51.706;4.856;2022-11-20T04:30:30;49.03;;;24.70;;
23001;SDS011;11667;51.706;4.856;2022-11-20T04:33:00;51.20;;;25.23;;
23001;SDS011;11667;51.706;4.856;2022-11-20T04:35:29;52.08;;;24.75;;
23001;SDS011;11667;51.706;4.856;2022-11-20T04:37:58;52.83;;;25.95;;
23001;SDS011;11667;51.706;4.856;2022-11-20T04:40:28;55.63;;;26.07;;
23001;SDS011;11667;51.706;4.856;2022-11-20T04:42:57;53.60;;;26.17;;
23001;SDS011;11667;51.706;4.856;2022-11-20T04:45:26;53.80;;;24.90;;
23001;SDS011;11667;51.706;4.856;2022-11-20T04:47:56;58.28;;;26.50;;
23001;SDS011;11667;51.706;4.856;2022-11-20T04:50:25;57.30;;;26.68;;
23001;SDS011;11667;51.706;4.856;2022-11-20T04:52:55;55.58;;;26.07;;
23001;SDS011;11667;51.706;4.856;2022-11-20T04:55:24;51.85;;;25.95;;
23001;SDS011;11667;51.706;4.856;2022-11-20T04:57:53;49.70;;;25.32;;
23001;SDS011;11667;51.706;4.856;2022-11-20T05:00:22;55.00;;;25.97;;
23001;SDS011;11667;51.706;4.856;2022-11-20T05:02:52;55.75;;;25.95;;
23001;SDS011;11667;51.706;4.856;2022-11-20T05:05:21;55.00;;;26.42;;
23001;SDS011;11667;51.706;4.856;2022-11-20T05:07:50;53.23;;;26.45;;
23001;SDS011;11667;51.706;4.856;2022-11-20T05:10:20;53.35;;;25.45;;
23001;SDS011;11667;51.706;4.856;2022-11-20T05:12:49;52.85;;;26.68;;
23001;SDS011;11667;51.706;4.856;2022-11-20T05:15:19;53.52;;;25.68;;
23001;SDS011;11667;51.706;4.856;2022-11-20T05:17:48;50.60;;;25.30;;
23001;SDS011;11667;51.706;4.856;2022-11-20T05:20:19;52.58;;;26.10;;
23001;SDS011;11667;51.706;4.856;2022-11-20T05:22:48;50.65;;;25.45;;
23001;SDS011;11667;51.706;4.856;2022-11-20T05:25:17;45.25;;;23.77;;
23001;SDS011;11667;51.706;4.856;2022-11-20T05:27:46;49.85;;;24.70;;
23001;SDS011;11667;51.706;4.856;2022-11-20T05:30:16;53.05;;;25.35;;
23001;SDS011;11667;51.706;4.856;2022-11-20T05:32:45;44.60;;;23.18;;
23001;SDS011;11667;51.706;4.856;2022-11-20T05:35:15;50.20;;;25.12;;
23001;SDS011;11667;51.706;4.856;2022-11-20T05:37:44;47.48;;;22.70;;
23001;SDS011;11667;51.706;4.856;2022-11-20T05:40:13;47.40;;;23.98;;
23001;SDS011;11667;51.706;4.856;2022-11-20T05:42:43;46.55;;;23.15;;
23001;SDS011;11667;51.706;4.856;2022-11-20T05:45:12;45.78;;;22.95;;
23001;SDS011;11667;51.706;4.856;2022-11-20T05:47:42;49.40;;;24.27;;
23001;SDS011;11667;51.706;4.856;2022-11-20T05:50:11;46.98;;;23.45;;
23001;SDS011;11667;51.706;4.856;2022-11-20T05:52:42;45.08;;;23.45;;
23001;SDS011;11667;51.706;4.856;2022-11-20T05:55:11;47.20;;;24.18;;
23001;SDS011;11667;51.706;4.856;2022-11-20T05:57:40;47.55;;;23.57;;
23001;SDS011;11667;51.706;4.856;2022-11-20T06:00:10;48.63;;;24.77;;
23001;SDS011;11667;51.706;4.856;2022-11-20T06:02:40;51.23;;;24.63;;
23001;SDS011;11667;51.706;4.856;2022-11-20T06:05:10;52.38;;;24.55;;
23001;SDS011;11667;51.706;4.856;2022-11-20T06:07:39;49.50;;;23.67;;
23001;SDS011;11667;51.706;4.856;2022-11-20T06:10:09;49.90;;;24.57;;
23001;SDS011;11667;51.706;4.856;2022-11-20T06:12:38;48.05;;;24.20;;
23001;SDS011;11667;51.706;4.856;2022-11-20T06:15:08;52.30;;;25.08;;
23001;SDS011;11667;51.706;4.856;2022-11-20T06:17:38;48.50;;;24.90;;
23001;SDS011;11667;51.706;4.856;2022-11-20T06:20:07;51.00;;;25.27;;
23001;SDS011;11667;51.706;4.856;2022-11-20T06:22:38;58.40;;;25.90;;
23001;SDS011;11667;51.706;4.856;2022-11-20T06:25:07;52.75;;;26.33;;
23001;SDS011;11667;51.706;4.856;2022-11-20T06:27:37;54.25;;;26.17;;
23001;SDS011;11667;51.706;4.856;2022-11-20T06:30:06;54.48;;;25.97;;
23001;SDS011;11667;51.706;4.856;2022-11-20T06:32:36;48.90;;;24.82;;
23001;SDS011;11667;51.706;4.856;2022-11-20T06:35:06;52.65;;;25.20;;
23001;SDS011;11667;51.706;4.856;2022-11-20T06:37:36;49.33;;;24.23;;
23001;SDS011;11667;51.706;4.856;2022-11-20T06:40:06;48.68;;;24.90;;
23001;SDS011;11667;51.706;4.856;2022-11-20T06:42:36;50.03;;;25.08;;
23001;SDS011;11667;51.706;4.856;2022-11-20T06:45:06;49.35;;;27.40;;
23001;SDS011;11667;51.706;4.856;2022-11-20T06:47:36;50.00;;;27.02;;
23001;SDS011;11667;51.706;4.856;2022-11-20T06:50:06;52.98;;;27.80;;
23001;SDS011;11667;51.706;4.856;2022-11-20T06:52:36;54.48;;;29.00;;
23001;SDS011;11667;51.706;4.856;2022-11-20T06:55:07;56.20;;;30.23;;
23001;SDS011;11667;51.706;4.856;2022-11-20T06:57:37;57.62;;;30.17;;
23001;SDS011;11667;51.706;4.856;2022-11-20T07:00:07;57.67;;;30.08;;
23001;SDS011;11667;51.706;4.856;2022-11-20T07:02:37;63.28;;;33.33;;
23001;SDS011;11667;51.706;4.856;2022-11-20T07:05:06;57.05;;;29.87;;
23001;SDS011;11667;51.706;4.856;2022-11-20T07:07:35;66.10;;;35.88;;
23001;SDS011;11667;51.706;4.856;2022-11-20T07:10:05;56.92;;;29.27;;
23001;SDS011;11667;51.706;4.856;2022-11-20T07:12:35;54.38;;;27.90;;
23001;SDS011;11667;51.706;4.856;2022-11-20T07:15:05;57.60;;;28.35;;
23001;SDS011;11667;51.706;4.856;2022-11-20T07:17:34;52.50;;;27.32;;
23001;SDS011;11667;51.706;4.856;2022-11-20T07:20:04;55.40;;;28.80;;
23001;SDS011;11667;51.706;4.856;2022-11-20T07:22:34;47.38;;;25.77;;
23001;SDS011;11667;51.706;4.856;2022-11-20T07:25:04;52.40;;;25.00;;
23001;SDS011;11667;51.706;4.856;2022-11-20T07:27:33;46.98;;;23.92;;
23001;SDS011;11667;51.706;4.856;2022-11-20T07:30:03;48.08;;;24.40;;
23001;SDS011;11667;51.706;4.856;2022-11-20T07:32:34;44.38;;;23.18;;
23001;SDS011;11667;51.706;4.856;2022-11-20T07:35:03;43.65;;;23.15;;
23001;SDS011;11667;51.706;4.856;2022-11-20T07:37:36;48.68;;;25.35;;
23001;SDS011;11667;51.706;4.856;2022-11-20T07:40:05;45.85;;;23.20;;
23001;SDS011;11667;51.706;4.856;2022-11-20T07:42:35;48.55;;;26.23;;
23001;SDS011;11667;51.706;4.856;2022-11-20T07:45:05;49.58;;;24.65;;
23001;SDS011;11667;51.706;4.856;2022-11-20T07:47:41;47.62;;;25.32;;
23001;SDS011;11667;51.706;4.856;2022-11-20T07:50:06;46.60;;;24.60;;
23001;SDS011;11667;51.706;4.856;2022-11-20T07:52:35;45.80;;;24.32;;
23001;SDS011;11667;51.706;4.856;2022-11-20T07:55:05;48.48;;;24.82;;
23001;SDS011;11667;51.706;4.856;2022-11-20T07:57:35;46.68;;;24.20;;
23001;SDS011;11667;51.706;4.856;2022-11-20T08:00:04;42.73;;;23.62;;
23001;SDS011;11667;51.706;4.856;2022-11-20T08:02:40;46.37;;;25.77;;
23001;SDS011;11667;51.706;4.856;2022-11-20T08:05:10;44.42;;;24.05;;
23001;SDS011;11667;51.706;4.856;2022-11-20T08:07:40;46.73;;;23.55;;
23001;SDS011;11667;51.706;4.856;2022-11-20T08:10:11;44.95;;;23.85;;
23001;SDS011;11667;51.706;4.856;2022-11-20T08:12:47;44.70;;;23.87;;
23001;SDS011;11667;51.706;4.856;2022-11-20T08:15:35;44.67;;;23.92;;
23001;SDS011;11667;51.706;4.856;2022-11-20T08:18:09;41.65;;;22.58;;
23001;SDS011;11667;51.706;4.856;2022-11-20T08:20:42;44.40;;;22.95;;
23001;SDS011;11667;51.706;4.856;2022-11-20T08:23:12;44.55;;;23.62;;
23001;SDS011;11667;51.706;4.856;2022-11-20T08:25:41;45.10;;;24.25;;
23001;SDS011;11667;51.706;4.856;2022-11-20T08:28:11;41.60;;;23.05;;
23001;SDS011;11667;51.706;4.856;2022-11-20T08:30:42;40.50;;;21.77;;
23001;SDS011;11667;51.706;4.856;2022-11-20T08:33:13;43.40;;;23.10;;
23001;SDS011;11667;51.706;4.856;2022-11-20T08:35:42;41.77;;;23.05;;
23001;SDS011;11667;51.706;4.856;2022-11-20T08:38:12;39.92;;;23.25;;
23001;SDS011;11667;51.706;4.856;2022-11-20T08:40:41;42.60;;;22.82;;
23001;SDS011;11667;51.706;4.856;2022-11-20T08:43:12;42.90;;;22.98;;
23001;SDS011;11667;51.706;4.856;2022-11-20T08:45:41;40.70;;;22.55;;
23001;SDS011;11667;51.706;4.856;2022-11-20T08:48:10;41.10;;;23.18;;
23001;SDS011;11667;51.706;4.856;2022-11-20T08:50:40;41.73;;;22.82;;
23001;SDS011;11667;51.706;4.856;2022-11-20T08:53:09;41.00;;;22.13;;
23001;SDS011;11667;51.706;4.856;2022-11-20T08:55:39;39.05;;;22.37;;
23001;SDS011;11667;51.706;4.856;2022-11-20T08:58:08;41.18;;;23.07;;
23001;SDS011;11667;51.706;4.856;2022-11-20T09:00:38;40.25;;;23.05;;
23001;SDS011;11667;51.706;4.856;2022-11-20T09:03:07;42.85;;;24.05;;
23001;SDS011;11667;51.706;4.856;2022-11-20T09:05:37;41.48;;;24.30;;
23001;SDS011;11667;51.706;4.856;2022-11-20T09:08:06;41.80;;;23.95;;
23001;SDS011;11667;51.706;4.856;2022-11-20T09:10:35;44.00;;;23.70;;
23001;SDS011;11667;51.706;4.856;2022-11-20T09:13:06;45.80;;;25.20;;
23001;SDS011;11667;51.706;4.856;2022-11-20T09:15:36;45.15;;;26.07;;
23001;SDS011;11667;51.706;4.856;2022-11-20T09:18:05;45.17;;;25.97;;
23001;SDS011;11667;51.706;4.856;2022-11-20T09:20:35;43.35;;;24.27;;
23001;SDS011;11667;51.706;4.856;2022-11-20T09:23:06;48.65;;;27.15;;
23001;SDS011;11667;51.706;4.856;2022-11-20T09:25:35;43.85;;;24.55;;
23001;SDS011;11667;51.706;4.856;2022-11-20T09:28:05;50.50;;;28.87;;
23001;SDS011;11667;51.706;4.856;2022-11-20T09:30:34;49.60;;;27.82;;
23001;SDS011;11667;51.706;4.856;2022-11-20T09:33:04;52.45;;;29.12;;
23001;SDS011;11667;51.706;4.856;2022-11-20T09:35:33;47.48;;;26.68;;
23001;SDS011;11667;51.706;4.856;2022-11-20T09:38:06;46.23;;;26.87;;
23001;SDS011;11667;51.706;4.856;2022-11-20T09:53:35;43.52;;;25.12;;
23001;SDS011;11667;51.706;4.856;2022-11-20T09:56:08;45.25;;;25.25;;
23001;SDS011;11667;51.706;4.856;2022-11-20T09:58:39;43.13;;;25.15;;
23001;SDS011;11667;51.706;4.856;2022-11-20T10:01:20;44.88;;;25.68;;
23001;SDS011;11667;51.706;4.856;2022-11-20T10:04:03;48.35;;;25.27;;
23001;SDS011;11667;51.706;4.856;2022-11-20T10:06:31;46.80;;;25.25;;
23001;SDS011;11667;51.706;4.856;2022-11-20T10:14:31;49.95;;;27.42;;
23001;SDS011;11667;51.706;4.856;2022-11-20T10:17:02;50.20;;;27.27;;
23001;SDS011;11667;51.706;4.856;2022-11-20T10:25:38;49.18;;;25.77;;
23001;SDS011;11667;51.706;4.856;2022-11-20T10:28:12;49.70;;;26.82;;
23001;SDS011;11667;51.706;4.856;2022-11-20T10:31:04;54.83;;;27.77;;
23001;SDS011;11667;51.706;4.856;2022-11-20T10:33:30;55.40;;;28.70;;
23001;SDS011;11667;51.706;4.856;2022-11-20T10:36:17;50.98;;;27.40;;
23001;SDS011;11667;51.706;4.856;2022-11-20T10:38:49;58.23;;;30.27;;
23001;SDS011;11667;51.706;4.856;2022-11-20T10:44:01;51.40;;;27.25;;
23001;SDS011;11667;51.706;4.856;2022-11-20T10:47:08;50.17;;;26.97;;
23001;SDS011;11667;51.706;4.856;2022-11-20T10:52:21;53.60;;;27.75;;
23001;SDS011;11667;51.706;4.856;2022-11-20T10:55:11;51.92;;;27.98;;
23001;SDS011;11667;51.706;4.856;2022-11-20T11:00:46;53.15;;;28.67;;
23001;SDS011;11667;51.706;4.856;2022-11-20T11:03:29;53.65;;;29.65;;
23001;SDS011;11667;51.706;4.856;2022-11-20T11:06:13;54.63;;;28.62;;
23001;SDS011;11667;51.706;4.856;2022-11-20T11:08:41;56.55;;;30.45;;
23001;SDS011;11667;51.706;4.856;2022-11-20T11:11:23;58.20;;;30.15;;
23001;SDS011;11667;51.706;4.856;2022-11-20T11:14:16;54.00;;;28.32;;
23001;SDS011;11667;51.706;4.856;2022-11-20T11:16:35;56.48;;;30.85;;
23001;SDS011;11667;51.706;4.856;2022-11-20T11:19:10;58.40;;;30.23;;
23001;SDS011;11667;51.706;4.856;2022-11-20T11:21:51;56.98;;;30.60;;
23001;SDS011;11667;51.706;4.856;2022-11-20T11:24:26;62.33;;;31.48;;
23001;SDS011;11667;51.706;4.856;2022-11-20T11:26:59;60.95;;;31.77;;
23001;SDS011;11667;51.706;4.856;2022-11-20T11:29:35;60.15;;;30.60;;
23001;SDS011;11667;51.706;4.856;2022-11-20T11:32:05;63.35;;;31.95;;
23001;SDS011;11667;51.706;4.856;2022-11-20T11:34:36;61.73;;;32.45;;
23001;SDS011;11667;51.706;4.856;2022-11-20T11:37:09;62.60;;;32.30;;
23001;SDS011;11667;51.706;4.856;2022-11-20T11:39:41;66.55;;;33.65;;
23001;SDS011;11667;51.706;4.856;2022-11-20T11:42:12;63.92;;;32.17;;
23001;SDS011;11667;51.706;4.856;2022-11-20T11:47:43;61.28;;;30.97;;
23001;SDS011;11667;51.706;4.856;2022-11-20T11:55:40;70.20;;;33.05;;
23001;SDS011;11667;51.706;4.856;2022-11-20T11:58:20;66.67;;;32.45;;
23001;SDS011;11667;51.706;4.856;2022-11-20T12:01:07;66.00;;;33.90;;
23001;SDS011;11667;51.706;4.856;2022-11-20T12:04:05;73.60;;;36.17;;
23001;SDS011;11667;51.706;4.856;2022-11-20T12:06:52;65.97;;;33.28;;
23001;SDS011;11667;51.706;4.856;2022-11-20T12:09:24;69.95;;;34.00;;
23001;SDS011;11667;51.706;4.856;2022-11-20T12:17:08;73.60;;;34.65;;
23001;SDS011;11667;51.706;4.856;2022-11-20T12:19:41;80.95;;;37.08;;
23001;SDS011;11667;51.706;4.856;2022-11-20T12:25:07;80.77;;;36.40;;
23001;SDS011;11667;51.706;4.856;2022-11-20T12:30:33;82.78;;;37.40;;
23001;SDS011;11667;51.706;4.856;2022-11-20T12:38:51;83.85;;;37.42;;
23001;SDS011;11667;51.706;4.856;2022-11-20T12:41:41;83.78;;;38.53;;
23001;SDS011;11667;51.706;4.856;2022-11-20T12:50:28;84.17;;;38.92;;
23001;SDS011;11667;51.706;4.856;2022-11-20T12:53:16;95.30;;;42.95;;
23001;SDS011;11667;51.706;4.856;2022-11-20T13:06:45;89.52;;;38.42;;
23001;SDS011;11667;51.706;4.856;2022-11-20T13:09:15;96.17;;;39.60;;
23001;SDS011;11667;51.706;4.856;2022-11-20T13:12:03;91.47;;;39.00;;
23001;SDS011;11667;51.706;4.856;2022-11-20T13:14:46;89.42;;;38.08;;
23001;SDS011;11667;51.706;4.856;2022-11-20T13:17:16;87.22;;;37.00;;
23001;SDS011;11667;51.706;4.856;2022-11-20T13:19:53;88.10;;;37.42;;
23001;SDS011;11667;51.706;4.856;2022-11-20T13:22:26;93.12;;;40.28;;
23001;SDS011;11667;51.706;4.856;2022-11-20T13:24:57;96.72;;;39.35;;
23001;SDS011;11667;51.706;4.856;2022-11-20T13:27:26;96.78;;;38.13;;
23001;SDS011;11667;51.706;4.856;2022-11-20T13:30:01;90.38;;;37.53;;
23001;SDS011;11667;51.706;4.856;2022-11-20T13:32:51;90.62;;;38.08;;
23001;SDS011;11667;51.706;4.856;2022-11-20T13:35:33;85.97;;;37.93;;
23001;SDS011;11667;51.706;4.856;2022-11-20T13:40:54;88.87;;;38.08;;
23001;SDS011;11667;51.706;4.856;2022-11-20T13:46:04;93.80;;;39.08;;
23001;SDS011;11667;51.706;4.856;2022-11-20T13:48:45;98.05;;;40.23;;
23001;SDS011;11667;51.706;4.856;2022-11-20T13:57:05;99.13;;;41.10;;
23001;SDS011;11667;51.706;4.856;2022-11-20T13:59:56;99.77;;;40.65;;
23001;SDS011;11667;51.706;4.856;2022-11-20T14:02:36;100.65;;;40.43;;
23001;SDS011;11667;51.706;4.856;2022-11-20T14:05:06;105.67;;;39.83;;
23001;SDS011;11667;51.706;4.856;2022-11-20T14:07:39;100.33;;;39.65;;
23001;SDS011;11667;51.706;4.856;2022-11-20T14:10:19;110.05;;;41.30;;
23001;SDS011;11667;51.706;4.856;2022-11-20T14:12:52;107.50;;;41.37;;
23001;SDS011;11667;51.706;4.856;2022-11-20T14:15:32;110.90;;;40.88;;
23001;SDS011;11667;51.706;4.856;2022-11-20T14:18:11;110.25;;;41.65;;
23001;SDS011;11667;51.706;4.856;2022-11-20T14:20:42;110.60;;;40.73;;
23001;SDS011;11667;51.706;4.856;2022-11-20T14:23:11;113.37;;;42.35;;
23001;SDS011;11667;51.706;4.856;2022-11-20T14:25:44;115.32;;;43.23;;
23001;SDS011;11667;51.706;4.856;2022-11-20T14:30:45;105.85;;;39.48;;
23001;SDS011;11667;51.706;4.856;2022-11-20T14:33:15;116.13;;;42.30;;
23001;SDS011;11667;51.706;4.856;2022-11-20T14:35:47;107.03;;;41.10;;
23001;SDS011;11667;51.706;4.856;2022-11-20T14:38:20;123.40;;;44.20;;
23001;SDS011;11667;51.706;4.856;2022-11-20T14:40:51;119.08;;;42.40;;
23001;SDS011;11667;51.706;4.856;2022-11-20T14:43:24;118.30;;;42.85;;
23001;SDS011;11667;51.706;4.856;2022-11-20T14:45:58;130.93;;;42.40;;
23001;SDS011;11667;51.706;4.856;2022-11-20T14:48:32;127.80;;;42.35;;
23001;SDS011;11667;51.706;4.856;2022-11-20T14:51:10;125.65;;;43.13;;
23001;SDS011;11667;51.706;4.856;2022-11-20T14:53:42;139.75;;;43.10;;
23001;SDS011;11667;51.706;4.856;2022-11-20T14:56:11;129.80;;;42.38;;
23001;SDS011;11667;51.706;4.856;2022-11-20T14:58:42;142.30;;;44.85;;
23001;SDS011;11667;51.706;4.856;2022-11-20T15:01:12;125.12;;;41.58;;
23001;SDS011;11667;51.706;4.856;2022-11-20T15:03:42;145.72;;;45.90;;
23001;SDS011;11667;51.706;4.856;2022-11-20T15:06:11;154.85;;;43.95;;
23001;SDS011;11667;51.706;4.856;2022-11-20T15:08:50;148.15;;;44.77;;
23001;SDS011;11667;51.706;4.856;2022-11-20T15:11:23;141.40;;;44.00;;
23001;SDS011;11667;51.706;4.856;2022-11-20T15:13:53;153.93;;;42.45;;
23001;SDS011;11667;51.706;4.856;2022-11-20T15:16:22;131.75;;;42.65;;
23001;SDS011;11667;51.706;4.856;2022-11-20T15:18:54;133.22;;;42.25;;
23001;SDS011;11667;51.706;4.856;2022-11-20T15:21:23;162.12;;;43.75;;
23001;SDS011;11667;51.706;4.856;2022-11-20T15:23:53;141.32;;;45.00;;
23001;SDS011;11667;51.706;4.856;2022-11-20T15:26:26;137.18;;;44.83;;
23001;SDS011;11667;51.706;4.856;2022-11-20T15:28:56;158.42;;;44.83;;
23001;SDS011;11667;51.706;4.856;2022-11-20T15:31:26;141.73;;;44.73;;
23001;SDS011;11667;51.706;4.856;2022-11-20T15:33:55;133.82;;;41.70;;
23001;SDS011;11667;51.706;4.856;2022-11-20T15:36:25;151.32;;;45.28;;
23001;SDS011;11667;51.706;4.856;2022-11-20T15:38:54;135.07;;;40.17;;
23001;SDS011;11667;51.706;4.856;2022-11-20T15:41:24;153.05;;;41.92;;
23001;SDS011;11667;51.706;4.856;2022-11-20T15:43:53;148.78;;;43.52;;
23001;SDS011;11667;51.706;4.856;2022-11-20T15:46:26;148.15;;;44.10;;
23001;SDS011;11667;51.706;4.856;2022-11-20T15:48:57;159.43;;;47.05;;
23001;SDS011;11667;51.706;4.856;2022-11-20T15:51:38;145.10;;;43.87;;
23001;SDS011;11667;51.706;4.856;2022-11-20T15:54:15;147.65;;;43.05;;
23001;SDS011;11667;51.706;4.856;2022-11-20T15:56:51;160.05;;;43.05;;
23001;SDS011;11667;51.706;4.856;2022-11-20T15:59:20;141.85;;;41.20;;
23001;SDS011;11667;51.706;4.856;2022-11-20T16:01:50;157.12;;;41.83;;
23001;SDS011;11667;51.706;4.856;2022-11-20T16:04:19;157.50;;;41.83;;
23001;SDS011;11667;51.706;4.856;2022-11-20T16:06:49;159.70;;;41.65;;
23001;SDS011;11667;51.706;4.856;2022-11-20T16:09:18;168.50;;;42.58;;
23001;SDS011;11667;51.706;4.856;2022-11-20T16:11:48;160.50;;;42.55;;
23001;SDS011;11667;51.706;4.856;2022-11-20T16:14:17;146.57;;;41.45;;
23001;SDS011;11667;51.706;4.856;2022-11-20T16:17:04;163.90;;;41.35;;